sensor_id;sensor_type;location;lat;lon;timestamp;temperature;humidity
81202;DHT22;70845;47.662;-2.750;2023-06-22T09:14:15;23.90;71.00
81202;DHT22;70845;47.662;-2.750;2023-06-22T09:17:10;24.20;69.00
81202;DHT22;70845;47.662;-2.750;2023-06-22T09:19:38;24.50;69.10
81202;DHT22;70845;47.662;-2.750;2023-06-22T09:26:19;24.80;68.10
81202;DHT22;70845;47.662;-2.750;2023-06-22T09:28:45;25.00;65.50
81202;DHT22;70845;47.662;-2.750;2023-06-22T09:31:12;25.20;68.30
81202;DHT22;70845;47.662;-2.750;2023-06-22T09:33:40;25.50;65.60
81202;DHT22;70845;47.662;-2.750;2023-06-22T09:36:07;25.70;67.30
81202;DHT22;70845;47.662;-2.750;2023-06-22T09:38:37;26.00;67.40
81202;DHT22;70845;47.662;-2.750;2023-06-22T09:41:03;26.20;64.60
81202;DHT22;70845;47.662;-2.750;2023-06-22T09:43:35;26.20;63.80
81202;DHT22;70845;47.662;-2.750;2023-06-22T09:46:02;26.10;63.00
81202;DHT22;70845;47.662;-2.750;2023-06-22T09:48:28;26.30;65.80
81202;DHT22;70845;47.662;-2.750;2023-06-22T09:50:57;26.50;65.00
81202;DHT22;70845;47.662;-2.750;2023-06-22T09:53:23;26.50;65.50
81202;DHT22;70845;47.662;-2.750;2023-06-22T09:55:50;26.50;62.80
81202;DHT22;70845;47.662;-2.750;2023-06-22T09:58:16;26.70;64.20
81202;DHT22;70845;47.662;-2.750;2023-06-22T10:00:42;26.60;62.40
81202;DHT22;70845;47.662;-2.750;2023-06-22T10:03:08;26.90;64.70
81202;DHT22;70845;47.662;-2.750;2023-06-22T10:05:35;27.00;62.90
81202;DHT22;70845;47.662;-2.750;2023-06-22T10:08:01;27.10;62.70
81202;DHT22;70845;47.662;-2.750;2023-06-22T10:10:27;27.30;60.60
81202;DHT22;70845;47.662;-2.750;2023-06-22T10:13:02;27.40;59.50
81202;DHT22;70845;47.662;-2.750;2023-06-22T10:15:34;27.70;62.90
81202;DHT22;70845;47.662;-2.750;2023-06-22T10:18:27;28.10;59.20
81202;DHT22;70845;47.662;-2.750;2023-06-22T10:20:53;28.20;59.50
81202;DHT22;70845;47.662;-2.750;2023-06-22T10:23:20;28.20;57.60
81202;DHT22;70845;47.662;-2.750;2023-06-22T10:25:47;28.50;61.00
81202;DHT22;70845;47.662;-2.750;2023-06-22T10:28:14;28.70;60.40
81202;DHT22;70845;47.662;-2.750;2023-06-22T10:30:40;28.70;58.90
81202;DHT22;70845;47.662;-2.750;2023-06-22T10:33:11;29.00;57.40
81202;DHT22;70845;47.662;-2.750;2023-06-22T10:35:38;29.10;59.20
81202;DHT22;70845;47.662;-2.750;2023-06-22T10:38:04;29.30;58.90
81202;DHT22;70845;47.662;-2.750;2023-06-22T10:40:30;29.50;55.20
81202;DHT22;70845;47.662;-2.750;2023-06-22T10:42:57;29.60;56.90
81202;DHT22;70845;47.662;-2.750;2023-06-22T10:45:23;29.60;56.50
81202;DHT22;70845;47.662;-2.750;2023-06-22T10:47:53;29.50;54.90
81202;DHT22;70845;47.662;-2.750;2023-06-22T10:50:19;29.80;57.80
81202;DHT22;70845;47.662;-2.750;2023-06-22T10:52:46;29.80;56.80
81202;DHT22;70845;47.662;-2.750;2023-06-22T10:55:11;29.80;57.00
81202;DHT22;70845;47.662;-2.750;2023-06-22T10:57:38;29.80;54.00
81202;DHT22;70845;47.662;-2.750;2023-06-22T11:00:10;29.50;56.10
81202;DHT22;70845;47.662;-2.750;2023-06-22T11:02:37;29.60;56.60
81202;DHT22;70845;47.662;-2.750;2023-06-22T11:05:03;29.80;56.50
81202;DHT22;70845;47.662;-2.750;2023-06-22T11:07:30;30.50;55.60
81202;DHT22;70845;47.662;-2.750;2023-06-22T11:09:56;30.30;53.60
81202;DHT22;70845;47.662;-2.750;2023-06-22T11:12:22;30.70;55.60
81202;DHT22;70845;47.662;-2.750;2023-06-22T11:14:48;31.30;52.30
81202;DHT22;70845;47.662;-2.750;2023-06-22T11:17:17;31.60;54.80
81202;DHT22;70845;47.662;-2.750;2023-06-22T11:19:45;32.00;53.80
81202;DHT22;70845;47.662;-2.750;2023-06-22T11:22:13;32.10;52.90
81202;DHT22;70845;47.662;-2.750;2023-06-22T11:24:38;32.20;53.20
81202;DHT22;70845;47.662;-2.750;2023-06-22T11:27:05;32.10;51.80
81202;DHT22;70845;47.662;-2.750;2023-06-22T11:29:31;31.90;52.30
81202;DHT22;70845;47.662;-2.750;2023-06-22T11:31:58;31.70;52.40
81202;DHT22;70845;47.662;-2.750;2023-06-22T11:34:25;32.10;52.50
81202;DHT22;70845;47.662;-2.750;2023-06-22T11:36:52;32.10;49.40
81202;DHT22;70845;47.662;-2.750;2023-06-22T11:39:18;31.70;52.00
81202;DHT22;70845;47.662;-2.750;2023-06-22T11:41:47;31.80;48.70
81202;DHT22;70845;47.662;-2.750;2023-06-22T11:44:14;31.40;52.10
81202;DHT22;70845;47.662;-2.750;2023-06-22T11:46:39;31.20;50.80
81202;DHT22;70845;47.662;-2.750;2023-06-22T11:49:05;31.40;51.90
81202;DHT22;70845;47.662;-2.750;2023-06-22T11:51:31;31.00;50.30
81202;DHT22;70845;47.662;-2.750;2023-06-22T11:53:57;31.00;52.30
81202;DHT22;70845;47.662;-2.750;2023-06-22T11:56:24;31.30;52.40
81202;DHT22;70845;47.662;-2.750;2023-06-22T11:58:50;30.90;51.00
81202;DHT22;70845;47.662;-2.750;2023-06-22T12:01:16;31.00;52.00
81202;DHT22;70845;47.662;-2.750;2023-06-22T12:03:46;30.90;51.40
81202;DHT22;70845;47.662;-2.750;2023-06-22T12:06:13;30.70;49.50
81202;DHT22;70845;47.662;-2.750;2023-06-22T12:08:39;30.30;51.40
81202;DHT22;70845;47.662;-2.750;2023-06-22T12:11:06;29.80;52.50
81202;DHT22;70845;47.662;-2.750;2023-06-22T12:13:32;29.50;53.20
81202;DHT22;70845;47.662;-2.750;2023-06-22T12:15:58;29.80;53.00
81202;DHT22;70845;47.662;-2.750;2023-06-22T12:18:25;29.70;53.60
81202;DHT22;70845;47.662;-2.750;2023-06-22T12:20:51;29.90;53.20
81202;DHT22;70845;47.662;-2.750;2023-06-22T12:23:19;30.40;51.80
81202;DHT22;70845;47.662;-2.750;2023-06-22T12:25:45;31.00;52.40
81202;DHT22;70845;47.662;-2.750;2023-06-22T12:28:13;31.10;51.50
81202;DHT22;70845;47.662;-2.750;2023-06-22T12:30:39;31.00;51.90
81202;DHT22;70845;47.662;-2.750;2023-06-22T12:33:06;30.90;51.50
81202;DHT22;70845;47.662;-2.750;2023-06-22T12:35:31;31.10;51.70
81202;DHT22;70845;47.662;-2.750;2023-06-22T12:37:57;31.10;50.60
81202;DHT22;70845;47.662;-2.750;2023-06-22T12:40:24;31.10;51.90
81202;DHT22;70845;47.662;-2.750;2023-06-22T12:42:50;31.70;48.80
81202;DHT22;70845;47.662;-2.750;2023-06-22T12:45:17;32.00;51.50
81202;DHT22;70845;47.662;-2.750;2023-06-22T12:47:44;32.50;51.00
81202;DHT22;70845;47.662;-2.750;2023-06-22T12:50:10;33.10;50.30
81202;DHT22;70845;47.662;-2.750;2023-06-22T12:52:37;33.80;49.30
81202;DHT22;70845;47.662;-2.750;2023-06-22T12:55:07;34.10;48.20
81202;DHT22;70845;47.662;-2.750;2023-06-22T12:57:34;34.20;47.30
81202;DHT22;70845;47.662;-2.750;2023-06-22T13:00:00;34.40;47.80
81202;DHT22;70845;47.662;-2.750;2023-06-22T13:02:26;34.40;47.00
81202;DHT22;70845;47.662;-2.750;2023-06-22T13:04:56;34.20;46.20
81202;DHT22;70845;47.662;-2.750;2023-06-22T13:07:22;33.90;47.00
81202;DHT22;70845;47.662;-2.750;2023-06-22T13:09:48;33.60;47.20
81202;DHT22;70845;47.662;-2.750;2023-06-22T13:12:18;32.90;46.30
81202;DHT22;70845;47.662;-2.750;2023-06-22T13:14:45;32.50;48.00
81202;DHT22;70845;47.662;-2.750;2023-06-22T13:17:13;32.40;49.00
81202;DHT22;70845;47.662;-2.750;2023-06-22T13:19:40;32.70;48.70
81202;DHT22;70845;47.662;-2.750;2023-06-22T13:22:26;32.50;46.00
81202;DHT22;70845;47.662;-2.750;2023-06-22T13:24:59;32.00;46.40
81202;DHT22;70845;47.662;-2.750;2023-06-22T13:27:26;31.80;48.60
81202;DHT22;70845;47.662;-2.750;2023-06-22T13:29:53;31.50;48.50
81202;DHT22;70845;47.662;-2.750;2023-06-22T13:32:19;31.20;48.60
81202;DHT22;70845;47.662;-2.750;2023-06-22T13:34:45;30.80;49.20
81202;DHT22;70845;47.662;-2.750;2023-06-22T13:37:11;30.50;49.70
81202;DHT22;70845;47.662;-2.750;2023-06-22T13:39:37;30.50;49.90
81202;DHT22;70845;47.662;-2.750;2023-06-22T13:42:05;30.70;50.70
81202;DHT22;70845;47.662;-2.750;2023-06-22T13:44:32;31.00;50.50
81202;DHT22;70845;47.662;-2.750;2023-06-22T13:47:06;31.00;49.60
81202;DHT22;70845;47.662;-2.750;2023-06-22T13:49:35;30.70;49.80
81202;DHT22;70845;47.662;-2.750;2023-06-22T13:52:04;29.60;51.70
81202;DHT22;70845;47.662;-2.750;2023-06-22T13:54:33;29.80;51.50
81202;DHT22;70845;47.662;-2.750;2023-06-22T13:57:01;29.40;51.90
81202;DHT22;70845;47.662;-2.750;2023-06-22T13:59:40;29.30;51.70
81202;DHT22;70845;47.662;-2.750;2023-06-22T14:02:07;28.10;54.90
81202;DHT22;70845;47.662;-2.750;2023-06-22T14:04:32;28.20;54.80
81202;DHT22;70845;47.662;-2.750;2023-06-22T14:06:59;28.00;55.10
81202;DHT22;70845;47.662;-2.750;2023-06-22T14:09:25;27.80;55.50
81202;DHT22;70845;47.662;-2.750;2023-06-22T14:11:51;27.80;55.30
81202;DHT22;70845;47.662;-2.750;2023-06-22T14:14:17;28.00;54.90
81202;DHT22;70845;47.662;-2.750;2023-06-22T14:16:43;28.20;54.90
81202;DHT22;70845;47.662;-2.750;2023-06-22T14:19:08;28.70;53.00
81202;DHT22;70845;47.662;-2.750;2023-06-22T14:21:34;29.40;52.30
81202;DHT22;70845;47.662;-2.750;2023-06-22T14:24:00;29.90;50.70
81202;DHT22;70845;47.662;-2.750;2023-06-22T14:26:26;29.90;50.00
81202;DHT22;70845;47.662;-2.750;2023-06-22T14:28:53;30.40;49.60
81202;DHT22;70845;47.662;-2.750;2023-06-22T14:31:19;30.80;49.10
81202;DHT22;70845;47.662;-2.750;2023-06-22T14:33:48;31.10;48.70
81202;DHT22;70845;47.662;-2.750;2023-06-22T14:36:17;31.60;47.80
81202;DHT22;70845;47.662;-2.750;2023-06-22T14:38:43;31.60;47.00
81202;DHT22;70845;47.662;-2.750;2023-06-22T14:41:10;31.40;47.90
81202;DHT22;70845;47.662;-2.750;2023-06-22T14:43:36;31.30;48.00
81202;DHT22;70845;47.662;-2.750;2023-06-22T14:46:04;31.10;48.40
81202;DHT22;70845;47.662;-2.750;2023-06-22T14:48:29;31.10;48.60
81202;DHT22;70845;47.662;-2.750;2023-06-22T14:50:56;31.40;48.60
81202;DHT22;70845;47.662;-2.750;2023-06-22T14:53:23;31.50;48.80
81202;DHT22;70845;47.662;-2.750;2023-06-22T14:55:50;31.50;46.90
81202;DHT22;70845;47.662;-2.750;2023-06-22T14:58:16;31.50;47.70
81202;DHT22;70845;47.662;-2.750;2023-06-22T15:00:42;31.60;48.10
81202;DHT22;70845;47.662;-2.750;2023-06-22T15:03:08;31.80;47.40
81202;DHT22;70845;47.662;-2.750;2023-06-22T15:05:36;31.90;47.40
81202;DHT22;70845;47.662;-2.750;2023-06-22T15:08:02;31.90;47.10
81202;DHT22;70845;47.662;-2.750;2023-06-22T15:10:32;32.00;47.30
81202;DHT22;70845;47.662;-2.750;2023-06-22T15:12:59;32.00;47.30
81202;DHT22;70845;47.662;-2.750;2023-06-22T15:15:30;32.20;47.00
81202;DHT22;70845;47.662;-2.750;2023-06-22T15:17:56;32.20;46.50
81202;DHT22;70845;47.662;-2.750;2023-06-22T15:20:23;32.20;46.20
81202;DHT22;70845;47.662;-2.750;2023-06-22T15:22:49;32.10;46.30
81202;DHT22;70845;47.662;-2.750;2023-06-22T15:25:15;32.10;46.40
81202;DHT22;70845;47.662;-2.750;2023-06-22T15:27:41;32.20;46.50
81202;DHT22;70845;47.662;-2.750;2023-06-22T15:30:08;32.20;46.00
81202;DHT22;70845;47.662;-2.750;2023-06-22T15:32:34;32.20;45.50
81202;DHT22;70845;47.662;-2.750;2023-06-22T15:35:02;31.90;46.10
81202;DHT22;70845;47.662;-2.750;2023-06-22T15:37:36;31.60;45.40
81202;DHT22;70845;47.662;-2.750;2023-06-22T15:40:10;31.60;45.80
81202;DHT22;70845;47.662;-2.750;2023-06-22T15:42:37;31.50;46.40
81202;DHT22;70845;47.662;-2.750;2023-06-22T15:45:05;31.50;46.30
81202;DHT22;70845;47.662;-2.750;2023-06-22T15:47:32;31.60;46.30
81202;DHT22;70845;47.662;-2.750;2023-06-22T15:50:02;31.50;46.00
81202;DHT22;70845;47.662;-2.750;2023-06-22T15:52:37;31.10;46.20
81202;DHT22;70845;47.662;-2.750;2023-06-22T15:55:07;31.20;45.70
81202;DHT22;70845;47.662;-2.750;2023-06-22T15:57:37;30.70;46.70
81202;DHT22;70845;47.662;-2.750;2023-06-22T16:00:05;30.90;46.40
81202;DHT22;70845;47.662;-2.750;2023-06-22T16:02:33;30.60;46.90
81202;DHT22;70845;47.662;-2.750;2023-06-22T16:04:59;31.00;46.40
81202;DHT22;70845;47.662;-2.750;2023-06-22T16:07:26;31.00;46.60
81202;DHT22;70845;47.662;-2.750;2023-06-22T16:09:53;30.90;46.30
81202;DHT22;70845;47.662;-2.750;2023-06-22T16:12:20;31.00;46.30
81202;DHT22;70845;47.662;-2.750;2023-06-22T16:14:50;31.20;45.40
81202;DHT22;70845;47.662;-2.750;2023-06-22T16:17:16;31.10;45.80
81202;DHT22;70845;47.662;-2.750;2023-06-22T16:19:43;31.00;45.70
81202;DHT22;70845;47.662;-2.750;2023-06-22T16:22:11;30.90;45.00
81202;DHT22;70845;47.662;-2.750;2023-06-22T16:24:39;31.00;46.30
81202;DHT22;70845;47.662;-2.750;2023-06-22T16:27:10;31.20;45.60
81202;DHT22;70845;47.662;-2.750;2023-06-22T16:29:38;31.20;45.50
81202;DHT22;70845;47.662;-2.750;2023-06-22T16:32:14;31.30;45.70
81202;DHT22;70845;47.662;-2.750;2023-06-22T16:34:43;31.30;45.60
81202;DHT22;70845;47.662;-2.750;2023-06-22T16:37:12;31.30;45.40
81202;DHT22;70845;47.662;-2.750;2023-06-22T16:39:38;31.30;45.60
81202;DHT22;70845;47.662;-2.750;2023-06-22T16:42:04;31.30;45.60
81202;DHT22;70845;47.662;-2.750;2023-06-22T16:44:30;31.20;45.30
81202;DHT22;70845;47.662;-2.750;2023-06-22T16:46:59;30.70;45.20
81202;DHT22;70845;47.662;-2.750;2023-06-22T16:49:26;30.60;45.80
81202;DHT22;70845;47.662;-2.750;2023-06-22T16:51:52;30.50;46.10
81202;DHT22;70845;47.662;-2.750;2023-06-22T16:54:18;30.40;46.70
81202;DHT22;70845;47.662;-2.750;2023-06-22T16:56:46;30.40;47.00
81202;DHT22;70845;47.662;-2.750;2023-06-22T16:59:12;30.30;46.90
81202;DHT22;70845;47.662;-2.750;2023-06-22T17:01:53;30.40;46.90
81202;DHT22;70845;47.662;-2.750;2023-06-22T17:04:25;30.40;47.10
81202;DHT22;70845;47.662;-2.750;2023-06-22T17:06:59;30.30;47.20
81202;DHT22;70845;47.662;-2.750;2023-06-22T17:09:28;30.40;47.20
81202;DHT22;70845;47.662;-2.750;2023-06-22T17:11:55;30.50;47.00
81202;DHT22;70845;47.662;-2.750;2023-06-22T17:14:21;30.30;47.20
81202;DHT22;70845;47.662;-2.750;2023-06-22T17:16:50;30.10;47.20
81202;DHT22;70845;47.662;-2.750;2023-06-22T17:19:17;30.00;47.70
81202;DHT22;70845;47.662;-2.750;2023-06-22T17:21:48;29.90;47.70
81202;DHT22;70845;47.662;-2.750;2023-06-22T17:24:18;29.80;48.10
81202;DHT22;70845;47.662;-2.750;2023-06-22T17:26:48;29.80;47.50
81202;DHT22;70845;47.662;-2.750;2023-06-22T17:29:16;29.70;47.90
81202;DHT22;70845;47.662;-2.750;2023-06-22T17:31:43;29.60;47.90
81202;DHT22;70845;47.662;-2.750;2023-06-22T17:34:49;29.60;47.50
81202;DHT22;70845;47.662;-2.750;2023-06-22T17:37:18;29.60;47.90
81202;DHT22;70845;47.662;-2.750;2023-06-22T17:39:52;29.70;47.50
81202;DHT22;70845;47.662;-2.750;2023-06-22T17:42:47;29.60;47.40
81202;DHT22;70845;47.662;-2.750;2023-06-22T17:45:24;29.50;47.60
81202;DHT22;70845;47.662;-2.750;2023-06-22T17:47:52;29.50;48.00
81202;DHT22;70845;47.662;-2.750;2023-06-22T17:50:31;29.50;48.10
81202;DHT22;70845;47.662;-2.750;2023-06-22T17:52:59;29.50;48.00
81202;DHT22;70845;47.662;-2.750;2023-06-22T17:55:25;29.40;47.80
81202;DHT22;70845;47.662;-2.750;2023-06-22T17:57:56;29.10;48.30
81202;DHT22;70845;47.662;-2.750;2023-06-22T18:00:26;28.90;48.40
81202;DHT22;70845;47.662;-2.750;2023-06-22T18:06:47;29.00;48.60
81202;DHT22;70845;47.662;-2.750;2023-06-22T18:09:16;29.00;48.10
81202;DHT22;70845;47.662;-2.750;2023-06-22T18:11:52;28.80;48.30
81202;DHT22;70845;47.662;-2.750;2023-06-22T18:14:45;28.60;48.90
81202;DHT22;70845;47.662;-2.750;2023-06-22T18:17:20;28.60;48.90
81202;DHT22;70845;47.662;-2.750;2023-06-22T18:20:21;28.50;49.10
81202;DHT22;70845;47.662;-2.750;2023-06-22T18:22:49;28.60;48.60
81202;DHT22;70845;47.662;-2.750;2023-06-22T18:25:16;28.40;49.10
81202;DHT22;70845;47.662;-2.750;2023-06-22T18:27:46;28.30;49.20
81202;DHT22;70845;47.662;-2.750;2023-06-22T18:30:16;28.30;49.20
81202;DHT22;70845;47.662;-2.750;2023-06-22T18:32:43;28.20;49.30
81202;DHT22;70845;47.662;-2.750;2023-06-22T18:35:10;28.20;49.60
81202;DHT22;70845;47.662;-2.750;2023-06-22T18:37:43;28.10;49.70
81202;DHT22;70845;47.662;-2.750;2023-06-22T18:40:13;27.90;49.80
81202;DHT22;70845;47.662;-2.750;2023-06-22T18:42:47;27.80;50.00
81202;DHT22;70845;47.662;-2.750;2023-06-22T18:45:27;27.60;51.40
81202;DHT22;70845;47.662;-2.750;2023-06-22T18:50:44;27.40;51.50
81202;DHT22;70845;47.662;-2.750;2023-06-22T18:53:18;27.30;51.60
81202;DHT22;70845;47.662;-2.750;2023-06-22T18:55:51;27.20;51.70
81202;DHT22;70845;47.662;-2.750;2023-06-22T18:58:28;27.00;52.00
81202;DHT22;70845;47.662;-2.750;2023-06-22T19:00:54;27.10;52.00
81202;DHT22;70845;47.662;-2.750;2023-06-22T19:03:40;27.10;52.00
81202;DHT22;70845;47.662;-2.750;2023-06-22T19:06:07;26.90;52.80
81202;DHT22;70845;47.662;-2.750;2023-06-22T19:11:47;26.80;52.90
81202;DHT22;70845;47.662;-2.750;2023-06-22T19:14:20;26.70;53.50
81202;DHT22;70845;47.662;-2.750;2023-06-22T19:16:47;26.60;53.80
81202;DHT22;70845;47.662;-2.750;2023-06-22T19:19:15;26.60;53.30
81202;DHT22;70845;47.662;-2.750;2023-06-22T19:21:41;26.50;53.70
81202;DHT22;70845;47.662;-2.750;2023-06-22T19:24:07;26.40;53.70
81202;DHT22;70845;47.662;-2.750;2023-06-22T19:26:35;26.50;53.80
81202;DHT22;70845;47.662;-2.750;2023-06-22T19:29:14;26.40;54.60
81202;DHT22;70845;47.662;-2.750;2023-06-22T19:31:43;26.40;54.10
81202;DHT22;70845;47.662;-2.750;2023-06-22T19:34:11;26.30;54.50
81202;DHT22;70845;47.662;-2.750;2023-06-22T19:36:40;26.30;54.60
81202;DHT22;70845;47.662;-2.750;2023-06-22T19:39:06;26.20;54.40
81202;DHT22;70845;47.662;-2.750;2023-06-22T19:41:33;26.20;54.60
81202;DHT22;70845;47.662;-2.750;2023-06-22T19:43:59;26.10;55.20
81202;DHT22;70845;47.662;-2.750;2023-06-22T19:46:32;26.00;55.90
81202;DHT22;70845;47.662;-2.750;2023-06-22T19:48:59;25.90;57.50
81202;DHT22;70845;47.662;-2.750;2023-06-22T19:51:34;25.70;57.70
81202;DHT22;70845;47.662;-2.750;2023-06-22T19:54:11;25.60;56.80
81202;DHT22;70845;47.662;-2.750;2023-06-22T19:56:41;25.60;57.00
81202;DHT22;70845;47.662;-2.750;2023-06-22T19:59:11;25.50;56.80
81202;DHT22;70845;47.662;-2.750;2023-06-22T20:01:39;25.60;56.80
81202;DHT22;70845;47.662;-2.750;2023-06-22T20:04:08;25.50;58.40
81202;DHT22;70845;47.662;-2.750;2023-06-22T20:06:59;25.50;59.50
81202;DHT22;70845;47.662;-2.750;2023-06-22T20:09:31;25.40;57.90
81202;DHT22;70845;47.662;-2.750;2023-06-22T20:12:00;25.40;57.80
81202;DHT22;70845;47.662;-2.750;2023-06-22T20:14:34;25.30;58.10
81202;DHT22;70845;47.662;-2.750;2023-06-22T20:17:00;25.30;60.00
81202;DHT22;70845;47.662;-2.750;2023-06-22T20:19:38;25.20;57.90
81202;DHT22;70845;47.662;-2.750;2023-06-22T20:22:10;25.20;57.80
81202;DHT22;70845;47.662;-2.750;2023-06-22T20:24:37;25.20;57.80
81202;DHT22;70845;47.662;-2.750;2023-06-22T20:27:10;25.20;58.10
81202;DHT22;70845;47.662;-2.750;2023-06-22T20:29:39;25.20;57.80
81202;DHT22;70845;47.662;-2.750;2023-06-22T20:32:09;25.20;59.00
81202;DHT22;70845;47.662;-2.750;2023-06-22T20:34:44;25.10;57.90
81202;DHT22;70845;47.662;-2.750;2023-06-22T20:37:11;25.10;58.10
81202;DHT22;70845;47.662;-2.750;2023-06-22T20:39:37;25.00;58.30
81202;DHT22;70845;47.662;-2.750;2023-06-22T20:42:05;24.90;58.50
81202;DHT22;70845;47.662;-2.750;2023-06-22T20:44:32;24.90;58.60
81202;DHT22;70845;47.662;-2.750;2023-06-22T20:46:59;24.80;58.70
81202;DHT22;70845;47.662;-2.750;2023-06-22T20:49:26;24.80;58.80
81202;DHT22;70845;47.662;-2.750;2023-06-22T20:51:52;24.70;59.10
81202;DHT22;70845;47.662;-2.750;2023-06-22T20:54:20;24.70;59.00
81202;DHT22;70845;47.662;-2.750;2023-06-22T20:56:47;24.60;59.10
81202;DHT22;70845;47.662;-2.750;2023-06-22T20:59:13;24.60;59.20
81202;DHT22;70845;47.662;-2.750;2023-06-22T21:01:39;24.60;59.60
81202;DHT22;70845;47.662;-2.750;2023-06-22T21:04:06;24.50;59.50
81202;DHT22;70845;47.662;-2.750;2023-06-22T21:06:34;24.40;60.10
81202;DHT22;70845;47.662;-2.750;2023-06-22T21:09:00;24.50;59.70
81202;DHT22;70845;47.662;-2.750;2023-06-22T21:11:27;24.40;60.10
81202;DHT22;70845;47.662;-2.750;2023-06-22T21:13:53;24.30;60.60
81202;DHT22;70845;47.662;-2.750;2023-06-22T21:16:20;24.40;60.30
81202;DHT22;70845;47.662;-2.750;2023-06-22T21:18:46;24.30;60.10
81202;DHT22;70845;47.662;-2.750;2023-06-22T21:21:12;24.30;60.30
81202;DHT22;70845;47.662;-2.750;2023-06-22T21:23:40;24.30;60.20
81202;DHT22;70845;47.662;-2.750;2023-06-22T21:26:06;24.20;60.50
81202;DHT22;70845;47.662;-2.750;2023-06-22T21:28:33;24.20;60.90
81202;DHT22;70845;47.662;-2.750;2023-06-22T21:30:59;24.20;60.80
81202;DHT22;70845;47.662;-2.750;2023-06-22T21:33:25;24.10;60.90
81202;DHT22;70845;47.662;-2.750;2023-06-22T21:35:51;24.00;61.50
81202;DHT22;70845;47.662;-2.750;2023-06-22T21:38:18;24.00;61.10
81202;DHT22;70845;47.662;-2.750;2023-06-22T21:40:45;23.90;61.30
81202;DHT22;70845;47.662;-2.750;2023-06-22T21:43:12;23.90;61.90
81202;DHT22;70845;47.662;-2.750;2023-06-22T21:45:39;23.80;62.00
81202;DHT22;70845;47.662;-2.750;2023-06-22T21:48:06;23.70;62.50
81202;DHT22;70845;47.662;-2.750;2023-06-22T21:50:32;23.60;62.60
81202;DHT22;70845;47.662;-2.750;2023-06-22T21:52:58;23.60;62.30
81202;DHT22;70845;47.662;-2.750;2023-06-22T21:55:25;23.60;62.30
81202;DHT22;70845;47.662;-2.750;2023-06-22T21:57:50;23.50;63.90
81202;DHT22;70845;47.662;-2.750;2023-06-22T22:00:18;23.50;62.30
81202;DHT22;70845;47.662;-2.750;2023-06-22T22:02:47;23.40;62.40
81202;DHT22;70845;47.662;-2.750;2023-06-22T22:05:13;23.40;63.50
81202;DHT22;70845;47.662;-2.750;2023-06-22T22:07:39;23.40;62.50
81202;DHT22;70845;47.662;-2.750;2023-06-22T22:10:05;23.30;62.40
81202;DHT22;70845;47.662;-2.750;2023-06-22T22:12:34;23.30;62.40
81202;DHT22;70845;47.662;-2.750;2023-06-22T22:15:01;23.40;62.20
81202;DHT22;70845;47.662;-2.750;2023-06-22T22:17:27;23.30;62.10
81202;DHT22;70845;47.662;-2.750;2023-06-22T22:19:53;23.40;62.30
81202;DHT22;70845;47.662;-2.750;2023-06-22T22:22:20;23.10;63.60
81202;DHT22;70845;47.662;-2.750;2023-06-22T22:24:50;23.10;64.00
81202;DHT22;70845;47.662;-2.750;2023-06-22T22:27:17;23.00;63.90
81202;DHT22;70845;47.662;-2.750;2023-06-22T22:30:04;22.90;66.20
81202;DHT22;70845;47.662;-2.750;2023-06-22T22:32:38;22.90;64.30
81202;DHT22;70845;47.662;-2.750;2023-06-22T22:35:04;22.80;64.00
81202;DHT22;70845;47.662;-2.750;2023-06-22T22:37:32;22.90;63.70
81202;DHT22;70845;47.662;-2.750;2023-06-22T22:39:58;22.90;64.60
81202;DHT22;70845;47.662;-2.750;2023-06-22T22:42:32;22.80;63.90
81202;DHT22;70845;47.662;-2.750;2023-06-22T22:45:00;22.80;63.50
81202;DHT22;70845;47.662;-2.750;2023-06-22T22:47:33;22.90;63.50
81202;DHT22;70845;47.662;-2.750;2023-06-22T22:50:00;22.80;63.20
81202;DHT22;70845;47.662;-2.750;2023-06-22T22:52:31;22.90;63.10
81202;DHT22;70845;47.662;-2.750;2023-06-22T22:55:01;23.00;63.00
81202;DHT22;70845;47.662;-2.750;2023-06-22T22:57:28;22.90;63.20
81202;DHT22;70845;47.662;-2.750;2023-06-22T22:59:54;22.80;63.30
81202;DHT22;70845;47.662;-2.750;2023-06-22T23:02:20;22.80;63.20
81202;DHT22;70845;47.662;-2.750;2023-06-22T23:04:55;22.80;63.40
81202;DHT22;70845;47.662;-2.750;2023-06-22T23:07:22;22.60;63.20
81202;DHT22;70845;47.662;-2.750;2023-06-22T23:09:48;22.60;63.10
81202;DHT22;70845;47.662;-2.750;2023-06-22T23:12:14;22.50;63.00
81202;DHT22;70845;47.662;-2.750;2023-06-22T23:14:40;22.60;63.20
81202;DHT22;70845;47.662;-2.750;2023-06-22T23:17:07;22.50;63.10
81202;DHT22;70845;47.662;-2.750;2023-06-22T23:19:33;22.40;63.10
81202;DHT22;70845;47.662;-2.750;2023-06-22T23:21:59;22.50;63.20
81202;DHT22;70845;47.662;-2.750;2023-06-22T23:24:25;22.50;63.10
81202;DHT22;70845;47.662;-2.750;2023-06-22T23:26:51;22.50;63.00
81202;DHT22;70845;47.662;-2.750;2023-06-22T23:29:17;22.40;63.30
81202;DHT22;70845;47.662;-2.750;2023-06-22T23:31:43;22.40;63.10
81202;DHT22;70845;47.662;-2.750;2023-06-22T23:34:09;22.40;64.30
81202;DHT22;70845;47.662;-2.750;2023-06-22T23:36:37;22.30;63.30
81202;DHT22;70845;47.662;-2.750;2023-06-22T23:39:03;22.40;63.40
81202;DHT22;70845;47.662;-2.750;2023-06-22T23:41:30;22.30;63.50
81202;DHT22;70845;47.662;-2.750;2023-06-22T23:43:56;22.30;63.20
81202;DHT22;70845;47.662;-2.750;2023-06-22T23:46:22;22.30;63.20
81202;DHT22;70845;47.662;-2.750;2023-06-22T23:48:49;22.20;63.40
81202;DHT22;70845;47.662;-2.750;2023-06-22T23:51:16;22.20;63.40
81202;DHT22;70845;47.662;-2.750;2023-06-22T23:53:43;22.20;63.40
81202;DHT22;70845;47.662;-2.750;2023-06-22T23:56:09;22.20;63.60
81202;DHT22;70845;47.662;-2.750;2023-06-22T23:58:35;22.10;63.50
